Time;durP1;ratioP1;P1;durP2;ratioP2;P2;SDS_P1;SDS_P2;PMS_P1;PMS_P2;Temp;Humidity;BMP_temperature;BMP_pressure;BME280_temperature;BME280_humidity;BME280_pressure;Samples;Min_cycle;Max_cycle;Signal;HPM_P1;HPM_P2
2023/09/09 00:02:15;;;;;;;42.57;40.57;;;25.80;98.00;;;;;;5030864;28;20448;-56
2023/09/09 00:04:42;;;;;;;36.53;34.83;;;25.80;97.90;;;;;;5034290;28;20481;-56
2023/09/09 00:07:11;;;;;;;38.57;36.57;;;25.70;98.10;;;;;;5035141;28;20936;-59
2023/09/09 00:09:38;;;;;;;35.70;33.70;;;25.70;97.90;;;;;;5035254;28;20469;-55
2023/09/09 00:12:06;;;;;;;36.20;34.50;;;25.70;98.00;;;;;;5026293;28;20476;-57
2023/09/09 00:14:33;;;;;;;36.90;35.00;;;25.70;97.90;;;;;;5034992;28;20473;-55
2023/09/09 00:17:00;;;;;;;35.33;33.67;;;25.70;98.10;;;;;;5034854;28;20488;-58
2023/09/09 00:19:28;;;;;;;36.77;35.07;;;25.70;98.10;;;;;;5034665;28;20984;-59
2023/09/09 00:21:55;;;;;;;35.10;33.40;;;25.70;98.30;;;;;;5034052;28;20487;-55
2023/09/09 00:24:23;;;;;;;34.57;32.87;;;25.70;98.40;;;;;;5034994;28;20783;-55
2023/09/09 00:26:50;;;;;;;35.70;33.90;;;25.60;98.30;;;;;;5034717;28;20479;-57
2023/09/09 00:29:16;;;;;;;35.27;33.37;;;25.60;98.50;;;;;;5034785;28;20492;-57
2023/09/09 00:31:43;;;;;;;35.20;33.50;;;25.60;98.50;;;;;;5034391;28;20472;-56
2023/09/09 00:34:10;;;;;;;36.33;34.53;;;25.60;98.50;;;;;;5033591;28;20484;-57
2023/09/09 00:36:37;;;;;;;36.63;34.73;;;25.60;98.50;;;;;;5034739;28;20473;-59
2023/09/09 00:39:04;;;;;;;35.37;33.50;;;25.60;98.40;;;;;;5034311;28;20500;-56
2023/09/09 00:41:33;;;;;;;35.47;33.70;;;25.50;98.40;;;;;;5034152;28;20509;-57
2023/09/09 00:44:00;;;;;;;34.40;32.60;;;25.50;98.40;;;;;;5034087;28;20473;-57
2023/09/09 00:46:26;;;;;;;38.83;36.90;;;25.50;98.60;;;;;;5034465;28;20475;-55
2023/09/09 00:48:53;;;;;;;34.93;33.03;;;25.50;98.60;;;;;;5034279;28;20496;-57
2023/09/09 00:51:20;;;;;;;35.73;34.03;;;25.50;98.80;;;;;;5034119;28;20461;-55
2023/09/09 00:53:47;;;;;;;36.27;34.20;;;25.50;98.90;;;;;;5033744;28;20477;-54
2023/09/09 00:56:14;;;;;;;35.87;33.77;;;25.40;99.00;;;;;;5034321;28;20473;-56
2023/09/09 00:58:42;;;;;;;34.30;32.70;;;25.40;99.00;;;;;;5034098;28;20499;-54
2023/09/09 01:01:09;;;;;;;36.50;34.70;;;25.40;99.00;;;;;;5026224;28;20912;-55
2023/09/09 01:03:36;;;;;;;36.77;34.87;;;25.40;98.80;;;;;;5033632;28;20488;-55
2023/09/09 01:06:04;;;;;;;35.90;34.10;;;25.40;98.80;;;;;;5034112;28;20971;-58
2023/09/09 01:08:31;;;;;;;35.13;33.33;;;25.40;98.90;;;;;;5033963;28;20496;-55
2023/09/09 01:10:59;;;;;;;35.23;33.43;;;25.30;98.80;;;;;;5033868;28;20473;-55
2023/09/09 01:13:26;;;;;;;35.20;33.50;;;25.30;98.70;;;;;;5033374;28;21030;-56
2023/09/09 01:15:55;;;;;;;36.97;35.17;;;25.30;98.90;;;;;;5033378;28;20561;-55
2023/09/09 01:18:22;;;;;;;35.67;33.80;;;25.30;98.70;;;;;;5033603;28;20503;-57
2023/09/09 01:20:58;;;;;;;34.73;32.93;;;25.30;98.80;;;;;;5033539;28;20519;-56
2023/09/09 01:23:26;;;;;;;35.33;33.60;;;25.30;98.80;;;;;;5033260;28;20850;-59
2023/09/09 01:25:53;;;;;;;37.67;35.67;;;25.20;98.90;;;;;;5033576;28;20476;-54
2023/09/09 01:28:22;;;;;;;37.40;35.50;;;25.20;98.80;;;;;;5033570;28;20496;-55
2023/09/09 01:30:49;;;;;;;36.83;35.10;;;25.20;99.00;;;;;;5033555;28;20759;-58
2023/09/09 01:33:15;;;;;;;36.30;34.60;;;25.20;98.90;;;;;;5033153;28;20485;-52
2023/09/09 01:35:41;;;;;;;36.30;34.47;;;25.20;98.70;;;;;;5033577;28;20473;-55
2023/09/09 01:38:08;;;;;;;35.90;34.10;;;25.20;98.60;;;;;;5025227;28;20258;-58
2023/09/09 01:40:37;;;;;;;36.33;34.23;;;25.20;98.70;;;;;;5033296;28;20509;-58
2023/09/09 01:43:04;;;;;;;34.70;33.10;;;25.20;98.60;;;;;;5032691;28;20922;-57
2023/09/09 01:45:31;;;;;;;36.30;34.50;;;25.20;98.60;;;;;;5032915;28;20491;-59
2023/09/09 01:47:58;;;;;;;37.07;35.37;;;25.20;98.50;;;;;;5033148;28;20499;-58
2023/09/09 01:50:25;;;;;;;39.63;37.67;;;25.20;98.50;;;;;;5032943;28;20499;-56
2023/09/09 01:52:52;;;;;;;35.70;33.60;;;25.20;98.60;;;;;;5032814;28;20472;-56
2023/09/09 01:55:19;;;;;;;37.30;35.30;;;25.10;98.80;;;;;;5033156;28;20471;-58
2023/09/09 01:57:47;;;;;;;36.50;34.60;;;25.10;98.60;;;;;;5032881;28;20443;-58
2023/09/09 02:00:14;;;;;;;37.03;35.13;;;25.10;98.90;;;;;;5032867;28;20782;-58
2023/09/09 02:02:41;;;;;;;36.30;34.40;;;25.10;99.00;;;;;;5032551;28;20520;-58
2023/09/09 02:05:09;;;;;;;36.90;35.10;;;25.10;99.10;;;;;;5032867;28;20465;-57
2023/09/09 02:07:36;;;;;;;37.00;35.00;;;25.10;99.20;;;;;;5032792;28;21030;-55
2023/09/09 02:10:03;;;;;;;37.30;35.50;;;25.00;99.60;;;;;;5032659;28;20512;-57
2023/09/09 02:12:30;;;;;;;37.30;35.50;;;25.00;99.10;;;;;;5032265;28;20441;-57
2023/09/09 02:14:58;;;;;;;36.03;34.33;;;25.00;98.80;;;;;;5032730;28;20480;-57
2023/09/09 02:17:25;;;;;;;37.33;35.23;;;25.00;98.60;;;;;;5032651;28;20985;-57
2023/09/09 02:19:55;;;;;;;36.37;34.60;;;25.00;98.70;;;;;;5049152;22;1104276;-61
2023/09/09 02:22:22;;;;;;;36.40;34.60;;;25.00;98.60;;;;;;5071685;28;20314;-60
2023/09/09 02:24:55;;;;;;;38.10;36.20;;;24.90;98.40;;;;;;5072449;28;20935;-61
2023/09/09 02:27:22;;;;;;;38.70;36.70;;;24.90;98.80;;;;;;5072105;28;20834;-60
2023/09/09 02:29:49;;;;;;;38.23;36.23;;;24.90;98.30;;;;;;5056199;28;20499;-60
2023/09/09 02:32:19;;;;;;;36.87;35.00;;;24.90;98.30;;;;;;5052451;28;20464;-61
2023/09/09 02:34:46;;;;;;;36.40;34.70;;;24.90;98.10;;;;;;5052277;28;20471;-61
2023/09/09 02:37:16;;;;;;;36.60;34.80;;;24.90;97.90;;;;;;5052347;28;20460;-59
2023/09/09 02:39:44;;;;;;;37.03;35.33;;;24.90;97.60;;;;;;5051085;28;20480;-57
2023/09/09 02:42:14;;;;;;;38.73;36.83;;;24.90;97.40;;;;;;5044812;28;20511;-61
2023/09/09 02:44:41;;;;;;;37.27;35.47;;;24.90;97.70;;;;;;5052252;28;20468;-61
2023/09/09 02:47:08;;;;;;;38.30;36.50;;;24.90;97.20;;;;;;5052136;28;20464;-59
2023/09/09 02:49:37;;;;;;;43.10;41.20;;;24.90;97.30;;;;;;5051857;28;20463;-60
2023/09/09 02:52:05;;;;;;;35.50;33.70;;;24.80;97.20;;;;;;5051806;28;20479;-59
2023/09/09 02:54:32;;;;;;;36.70;34.90;;;24.80;97.00;;;;;;5051974;28;20460;-61
2023/09/09 02:56:59;;;;;;;36.90;34.83;;;24.80;96.90;;;;;;5051879;28;20452;-59
2023/09/09 02:59:26;;;;;;;35.73;33.83;;;24.80;96.90;;;;;;5051612;28;20468;-60
2023/09/09 03:01:53;;;;;;;36.57;34.77;;;24.80;97.10;;;;;;5051412;28;20511;-58
2023/09/09 03:04:20;;;;;;;37.57;35.23;;;24.80;97.10;;;;;;5051849;28;20468;-61
2023/09/09 03:06:48;;;;;;;37.10;35.30;;;24.70;97.00;;;;;;5051697;28;20436;-61
2023/09/09 03:09:15;;;;;;;36.90;35.20;;;24.70;97.00;;;;;;5051338;28;20514;-59
2023/09/09 03:11:42;;;;;;;35.73;33.93;;;24.70;97.30;;;;;;5051678;28;20927;-60
2023/09/09 03:14:09;;;;;;;36.30;34.50;;;24.70;97.30;;;;;;5051619;28;20472;-59
2023/09/09 03:16:36;;;;;;;35.60;33.90;;;24.70;97.30;;;;;;5051765;28;20479;-58
2023/09/09 03:19:03;;;;;;;35.10;33.30;;;24.70;97.30;;;;;;5051267;28;20512;-61
2023/09/09 03:21:30;;;;;;;37.00;35.30;;;24.70;97.30;;;;;;5051029;28;20480;-61
2023/09/09 03:23:59;;;;;;;37.00;35.20;;;24.70;97.50;;;;;;5051448;28;21017;-61
2023/09/09 03:26:26;;;;;;;36.80;35.00;;;24.70;97.40;;;;;;5051582;28;20441;-58
2023/09/09 03:28:53;;;;;;;34.70;33.00;;;24.70;97.40;;;;;;5050946;28;20500;-58
2023/09/09 03:31:20;;;;;;;35.00;33.30;;;24.60;97.40;;;;;;5051282;28;20495;-60
2023/09/09 03:33:47;;;;;;;35.57;33.77;;;24.60;97.40;;;;;;5051281;28;20446;-59
2023/09/09 03:36:14;;;;;;;36.93;35.13;;;24.60;97.50;;;;;;5051352;28;20480;-60
2023/09/09 03:38:41;;;;;;;35.87;34.17;;;24.60;97.60;;;;;;5050064;28;20474;-60
2023/09/09 03:41:09;;;;;;;36.70;34.83;;;24.60;97.90;;;;;;5051355;28;20526;-58
2023/09/09 03:43:37;;;;;;;37.03;35.20;;;24.60;98.10;;;;;;5051176;28;20893;-60
2023/09/09 03:46:04;;;;;;;35.50;33.67;;;24.50;98.10;;;;;;5051176;28;20472;-59
2023/09/09 03:48:31;;;;;;;35.90;34.10;;;24.50;98.00;;;;;;5050823;28;20500;-60
2023/09/09 03:50:59;;;;;;;34.60;32.80;;;24.50;98.10;;;;;;5051108;28;20486;-59
2023/09/09 03:53:26;;;;;;;37.10;35.20;;;24.50;98.20;;;;;;5051049;28;20810;-60
2023/09/09 03:55:53;;;;;;;36.57;34.77;;;24.50;98.30;;;;;;5049849;28;20480;-60
2023/09/09 03:58:23;;;;;;;35.10;33.40;;;24.50;98.30;;;;;;5050617;28;20503;-60
2023/09/09 04:00:50;;;;;;;37.50;35.70;;;24.50;98.40;;;;;;5050965;28;20823;-58
2023/09/09 04:03:17;;;;;;;38.43;36.33;;;24.50;98.50;;;;;;5050982;28;20475;-60
2023/09/09 04:05:47;;;;;;;38.50;36.70;;;24.40;98.60;;;;;;5050792;28;20468;-60
2023/09/09 04:08:14;;;;;;;39.60;37.60;;;24.40;98.30;;;;;;5043001;28;20527;-59
2023/09/09 04:10:41;;;;;;;40.67;38.60;;;24.40;98.40;;;;;;5051100;28;20495;-60
2023/09/09 04:13:08;;;;;;;40.00;37.53;;;24.40;98.50;;;;;;5050948;28;20428;-60
2023/09/09 04:15:40;;;;;;;42.03;39.80;;;24.30;98.60;;;;;;5050850;28;20470;-57
2023/09/09 04:18:07;;;;;;;40.73;38.77;;;24.30;98.70;;;;;;5049960;28;20992;-61
2023/09/09 04:20:34;;;;;;;38.70;36.80;;;24.30;98.80;;;;;;5050978;28;20440;-53
2023/09/09 04:23:01;;;;;;;39.97;37.97;;;24.30;98.60;;;;;;5050559;28;20518;-51
2023/09/09 04:25:28;;;;;;;39.93;38.03;;;24.30;98.50;;;;;;5051090;28;20468;-61
2023/09/09 04:27:54;;;;;;;39.33;37.33;;;24.20;98.40;;;;;;5050635;28;20482;-58
2023/09/09 04:30:21;;;;;;;39.27;37.37;;;24.20;98.50;;;;;;5051006;28;20495;-61
2023/09/09 04:32:50;;;;;;;48.97;46.67;;;24.20;98.60;;;;;;5050696;28;20464;-61
2023/09/09 04:35:17;;;;;;;38.87;36.80;;;24.20;98.70;;;;;;5043124;28;20460;-61
2023/09/09 04:37:43;;;;;;;37.80;36.00;;;24.20;98.80;;;;;;5049386;28;20884;-61
2023/09/09 04:40:11;;;;;;;39.80;37.67;;;24.20;98.90;;;;;;5050673;28;20488;-59
2023/09/09 04:42:38;;;;;;;39.50;37.50;;;24.20;99.00;;;;;;5050639;28;20532;-61
2023/09/09 04:45:06;;;;;;;39.53;37.53;;;24.20;99.10;;;;;;5050849;28;20468;-57
2023/09/09 04:47:34;;;;;;;44.27;42.47;;;24.10;99.10;;;;;;5051038;28;20476;-56
2023/09/09 04:50:03;;;;;;;44.53;42.53;;;24.20;99.90;;;;;;5053469;28;20482;-56
2023/09/09 04:52:29;;;;;;;45.40;43.40;;;24.20;99.60;;;;;;5054177;28;20440;-56
2023/09/09 04:54:56;;;;;;;45.03;43.20;;;24.20;99.50;;;;;;5054162;28;20478;-52
2023/09/09 04:57:23;;;;;;;45.90;43.80;;;24.30;99.70;;;;;;5050185;28;20484;-54
2023/09/09 04:59:50;;;;;;;44.60;42.60;;;24.30;99.60;;;;;;5054131;28;20507;-55
2023/09/09 05:02:17;;;;;;;46.20;44.30;;;24.40;99.90;;;;;;5054144;28;20500;-51
2023/09/09 05:04:44;;;;;;;44.90;43.07;;;24.50;99.40;;;;;;5054114;28;20468;-54
2023/09/09 05:07:12;;;;;;;45.33;43.23;;;24.70;99.40;;;;;;5053398;28;20475;-53
2023/09/09 05:09:39;;;;;;;45.13;43.07;;;24.80;99.20;;;;;;5054085;28;21145;-56
2023/09/09 05:12:06;;;;;;;45.57;43.67;;;24.90;98.90;;;;;;5053778;28;20468;-56
2023/09/09 05:14:33;;;;;;;47.30;45.00;;;25.10;98.60;;;;;;5053825;28;20464;-53
2023/09/09 05:17:00;;;;;;;46.90;44.90;;;25.20;98.30;;;;;;5053519;28;20494;-58
2023/09/09 05:19:27;;;;;;;47.13;45.13;;;25.30;98.00;;;;;;5053767;28;20499;-55
2023/09/09 05:21:54;;;;;;;48.67;46.50;;;25.40;97.90;;;;;;5046658;28;20519;-55
2023/09/09 05:24:22;;;;;;;47.43;45.23;;;25.50;97.40;;;;;;5047620;28;20484;-55
2023/09/09 05:26:49;;;;;;;47.00;44.80;;;25.60;97.40;;;;;;5053712;28;20888;-51
2023/09/09 05:29:16;;;;;;;50.17;48.07;;;25.70;97.20;;;;;;5053454;28;20990;-56
2023/09/09 05:31:43;;;;;;;48.30;46.20;;;25.70;96.80;;;;;;5053592;28;20444;-51
2023/09/09 05:34:10;;;;;;;50.57;48.57;;;25.80;96.70;;;;;;5053132;28;20480;-51
2023/09/09 05:36:37;;;;;;;47.53;45.43;;;25.80;96.50;;;;;;5053627;28;20440;-51
2023/09/09 05:39:04;;;;;;;48.73;46.60;;;25.90;96.50;;;;;;5053395;28;20495;-55
2023/09/09 05:41:32;;;;;;;47.33;45.43;;;26.00;96.30;;;;;;5053134;28;20960;-51
2023/09/09 05:43:59;;;;;;;48.50;46.40;;;26.00;96.10;;;;;;5052561;28;20510;-51
2023/09/09 05:46:26;;;;;;;50.63;48.57;;;26.10;96.00;;;;;;5053587;28;20525;-50
2023/09/09 05:48:53;;;;;;;49.00;47.00;;;26.20;96.00;;;;;;5053139;28;20522;-51
2023/09/09 05:51:20;;;;;;;47.13;45.13;;;26.20;95.70;;;;;;5053129;28;20523;-59
2023/09/09 05:53:48;;;;;;;50.50;48.57;;;26.20;95.60;;;;;;5052891;28;20502;-58
2023/09/09 05:56:15;;;;;;;49.17;46.93;;;26.30;95.50;;;;;;5053331;28;20472;-57
2023/09/09 05:58:45;;;;;;;49.10;47.10;;;26.30;95.50;;;;;;5053334;28;20491;-56
2023/09/09 06:01:13;;;;;;;51.80;49.60;;;26.30;95.90;;;;;;5048536;28;20456;-58
2023/09/09 06:03:42;;;;;;;51.30;49.30;;;26.40;95.90;;;;;;5052808;28;20487;-53
2023/09/09 06:06:12;;;;;;;52.17;49.97;;;26.40;95.50;;;;;;5053017;28;20854;-58
2023/09/09 06:08:39;;;;;;;54.00;51.70;;;26.50;95.20;;;;;;5052830;28;20460;-55
2023/09/09 06:11:06;;;;;;;51.50;49.40;;;26.50;95.00;;;;;;5050279;28;20948;-51
2023/09/09 06:13:33;;;;;;;52.77;50.60;;;26.50;94.90;;;;;;5052483;28;20479;-51
2023/09/09 06:16:08;;;;;;;51.47;49.37;;;26.60;94.90;;;;;;5052709;28;20455;-50
2023/09/09 06:18:35;;;;;;;51.33;49.20;;;26.60;94.80;;;;;;5052483;28;20464;-53
2023/09/09 06:21:04;;;;;;;51.17;49.07;;;26.60;94.60;;;;;;5051969;28;20958;-52
2023/09/09 06:23:33;;;;;;;50.70;48.70;;;26.60;94.50;;;;;;5052472;28;21126;-52
2023/09/09 06:26:00;;;;;;;52.23;50.03;;;26.60;94.50;;;;;;5052597;28;20454;-53
2023/09/09 06:28:31;;;;;;;54.57;52.10;;;26.60;94.50;;;;;;5052473;28;20464;-57
2023/09/09 06:30:59;;;;;;;49.63;47.63;;;26.70;94.80;;;;;;5051493;28;21096;-56
2023/09/09 06:33:28;;;;;;;52.83;50.73;;;26.80;94.70;;;;;;5051270;28;20441;-51
2023/09/09 06:35:57;;;;;;;54.97;52.57;;;26.80;94.40;;;;;;5052374;28;20463;-52
2023/09/09 06:38:26;;;;;;;57.43;54.77;;;26.80;94.30;;;;;;5052172;28;20483;-55
2023/09/09 06:40:53;;;;;;;53.07;50.80;;;26.80;94.70;;;;;;5051658;28;20448;-50
2023/09/09 06:43:21;;;;;;;57.67;55.07;;;26.80;94.20;;;;;;5043978;28;20577;-51
2023/09/09 06:45:51;;;;;;;54.93;52.43;;;26.80;94.00;;;;;;5050890;28;20441;-53
2023/09/09 06:48:21;;;;;;;56.10;53.80;;;26.80;94.20;;;;;;5052127;28;20436;-53
2023/09/09 06:50:51;;;;;;;54.73;52.33;;;26.80;94.10;;;;;;5051349;28;20811;-53
2023/09/09 06:53:18;;;;;;;56.03;53.80;;;26.80;94.20;;;;;;5051517;28;20484;-51
2023/09/09 06:55:46;;;;;;;56.53;54.17;;;26.80;94.20;;;;;;5051730;28;20566;-53
2023/09/09 06:58:15;;;;;;;56.97;54.40;;;26.90;93.90;;;;;;5051662;28;20468;-55
2023/09/09 07:00:49;;;;;;;55.20;52.90;;;26.90;93.60;;;;;;5044775;28;20477;-54
2023/09/09 07:03:18;;;;;;;57.10;54.70;;;26.90;93.50;;;;;;5048390;28;20504;-59
2023/09/09 07:05:45;;;;;;;57.40;55.10;;;27.00;93.80;;;;;;5051792;28;20502;-53
2023/09/09 07:08:14;;;;;;;63.63;61.03;;;27.00;93.40;;;;;;5051802;28;20531;-51
2023/09/09 07:10:49;;;;;;;61.63;59.13;;;27.00;93.20;;;;;;5051034;28;20448;-55
2023/09/09 07:13:17;;;;;;;60.50;58.00;;;27.00;92.90;;;;;;5051430;28;20443;-56
2023/09/09 07:15:47;;;;;;;61.40;58.93;;;27.00;92.70;;;;;;5051565;28;20496;-55
2023/09/09 07:18:16;;;;;;;61.80;59.20;;;27.10;92.70;;;;;;5051357;28;20444;-60
2023/09/09 07:20:46;;;;;;;62.33;59.83;;;27.20;92.60;;;;;;5051498;28;20526;-57
2023/09/09 07:23:16;;;;;;;61.83;59.40;;;27.20;92.60;;;;;;5045386;28;20476;-53
2023/09/09 07:25:44;;;;;;;62.10;59.60;;;27.20;92.10;;;;;;5051525;28;20471;-50
2023/09/09 07:28:12;;;;;;;62.57;60.10;;;27.30;92.10;;;;;;5051288;28;20444;-51
2023/09/09 07:30:39;;;;;;;60.33;57.97;;;27.20;91.80;;;;;;5051449;28;20454;-59
2023/09/09 07:33:06;;;;;;;60.70;58.10;;;27.30;92.20;;;;;;5051495;28;20464;-60
2023/09/09 07:35:39;;;;;;;54.50;51.80;;;27.20;91.80;;;;;;5046666;28;21018;-51
2023/09/09 07:38:12;;;;;;;53.03;50.43;;;27.30;92.00;;;;;;5050864;28;20448;-57
2023/09/09 07:40:44;;;;;;;56.07;53.40;;;27.30;91.90;;;;;;5051640;28;20436;-51
2023/09/09 07:43:11;;;;;;;56.87;54.23;;;27.30;91.50;;;;;;5050993;28;20480;-51
2023/09/09 07:45:40;;;;;;;56.33;53.73;;;27.30;91.70;;;;;;5051278;28;20444;-52
2023/09/09 07:48:09;;;;;;;54.67;52.07;;;27.20;91.60;;;;;;5041262;28;20509;-56
2023/09/09 07:50:37;;;;;;;53.07;50.57;;;27.20;92.10;;;;;;5051637;28;20452;-51
2023/09/09 07:53:05;;;;;;;51.53;49.03;;;27.10;91.90;;;;;;5050980;28;20490;-54
2023/09/09 07:55:35;;;;;;;47.97;45.40;;;27.10;92.00;;;;;;5051213;28;21013;-51
2023/09/09 07:58:04;;;;;;;53.13;50.60;;;27.00;92.10;;;;;;5050571;28;20444;-50
2023/09/09 08:00:32;;;;;;;49.20;46.80;;;26.90;92.40;;;;;;5046385;28;20459;-49
2023/09/09 08:02:59;;;;;;;54.50;51.50;;;26.80;92.60;;;;;;5050738;28;20828;-49
2023/09/09 08:05:26;;;;;;;55.67;53.07;;;26.70;93.00;;;;;;5051136;28;20444;-49
2023/09/09 08:07:53;;;;;;;55.63;53.03;;;26.70;93.10;;;;;;5047963;28;20475;-50
2023/09/09 08:10:20;;;;;;;54.70;52.10;;;26.60;93.50;;;;;;5050950;28;20494;-52
2023/09/09 08:12:47;;;;;;;52.40;49.90;;;26.60;93.80;;;;;;5050979;28;20443;-51
2023/09/09 08:15:16;;;;;;;57.27;54.37;;;26.50;94.10;;;;;;5051008;28;20497;-51
2023/09/09 08:17:43;;;;;;;53.87;50.77;;;26.40;94.10;;;;;;5050468;28;20864;-52
2023/09/09 08:20:10;;;;;;;51.80;49.33;;;26.40;94.50;;;;;;5050954;28;20467;-57
2023/09/09 08:22:37;;;;;;;54.10;51.60;;;26.40;94.50;;;;;;5050577;28;20480;-58
2023/09/09 08:25:05;;;;;;;53.17;50.50;;;26.30;94.90;;;;;;5053495;28;20954;-56
2023/09/09 08:27:33;;;;;;;52.87;50.17;;;26.30;95.00;;;;;;5049777;28;20486;-53
2023/09/09 08:30:00;;;;;;;52.10;49.37;;;26.30;95.20;;;;;;5054638;28;20487;-53
2023/09/09 08:32:28;;;;;;;56.13;53.50;;;26.30;95.70;;;;;;5054661;28;20464;-50
2023/09/09 08:34:55;;;;;;;51.77;49.40;;;26.20;95.90;;;;;;5054999;28;20464;-53
2023/09/09 08:37:22;;;;;;;49.67;47.27;;;26.20;96.20;;;;;;5053921;28;20444;-57
2023/09/09 08:39:55;;;;;;;53.30;50.50;;;26.20;96.20;;;;;;5054617;28;20492;-59
2023/09/09 08:42:35;;;;;;;53.80;51.20;;;26.10;96.30;;;;;;5054271;28;20460;-55
2023/09/09 08:45:09;;;;;;;53.07;50.67;;;26.10;96.90;;;;;;5054345;28;20440;-53
2023/09/09 08:47:40;;;;;;;51.83;49.33;;;26.10;97.00;;;;;;5054258;28;20520;-53
2023/09/09 08:50:08;;;;;;;50.73;48.30;;;26.10;96.60;;;;;;5054261;28;20484;-59
2023/09/09 08:52:35;;;;;;;48.30;46.00;;;26.10;96.80;;;;;;5054183;28;20472;-56
2023/09/09 08:55:09;;;;;;;49.17;46.67;;;26.10;97.00;;;;;;5054248;28;20479;-54
2023/09/09 08:57:37;;;;;;;50.80;48.30;;;26.20;97.60;;;;;;5053021;28;21059;-57
2023/09/09 09:00:09;;;;;;;48.87;46.50;;;26.10;97.30;;;;;;5052935;28;20484;-53
2023/09/09 09:02:40;;;;;;;49.47;46.97;;;26.10;98.00;;;;;;5054025;28;20498;-60
2023/09/09 09:05:11;;;;;;;47.80;45.50;;;26.10;98.20;;;;;;5053952;28;20829;-58
2023/09/09 09:07:39;;;;;;;51.40;49.00;;;26.20;98.00;;;;;;5053079;28;20460;-52
2023/09/09 09:10:07;;;;;;;53.40;50.60;;;26.20;98.00;;;;;;5047171;28;20499;-52
2023/09/09 09:12:37;;;;;;;52.43;50.03;;;26.20;98.20;;;;;;5053797;28;20472;-53
2023/09/09 09:15:05;;;;;;;52.30;49.67;;;26.20;98.10;;;;;;5053954;28;20924;-50
2023/09/09 09:17:32;;;;;;;51.10;48.47;;;26.20;98.10;;;;;;5054107;28;20784;-54
2023/09/09 09:20:01;;;;;;;53.60;50.53;;;26.20;98.20;;;;;;5047347;28;20532;-51
2023/09/09 09:22:30;;;;;;;54.90;51.70;;;26.20;98.50;;;;;;5046415;28;20471;-56
2023/09/09 09:24:57;;;;;;;52.87;49.60;;;26.20;99.60;;;;;;5053726;28;20952;-55
2023/09/09 09:27:24;;;;;;;51.10;48.30;;;26.20;99.90;;;;;;5053721;28;20809;-55
2023/09/09 09:29:52;;;;;;;53.47;50.47;;;26.30;99.90;;;;;;5053672;28;20492;-55
2023/09/09 09:32:21;;;;;;;54.13;50.70;;;26.30;99.90;;;;;;5048190;28;20487;-56
2023/09/09 09:34:50;;;;;;;53.00;49.90;;;26.30;99.90;;;;;;5052832;28;20886;-60
2023/09/09 09:37:19;;;;;;;50.40;47.43;;;26.30;99.90;;;;;;5052729;28;21009;-54
2023/09/09 09:39:46;;;;;;;53.07;50.23;;;26.30;99.90;;;;;;5053471;28;20463;-58
2023/09/09 09:42:14;;;;;;;53.17;50.37;;;26.30;99.90;;;;;;5052399;28;20455;-56
2023/09/09 09:44:41;;;;;;;51.27;48.53;;;26.30;99.90;;;;;;5053331;28;20511;-56
2023/09/09 09:47:10;;;;;;;53.00;50.30;;;26.30;99.90;;;;;;5053371;28;20468;-52
2023/09/09 09:49:39;;;;;;;53.73;50.63;;;26.30;99.90;;;;;;5053201;28;20470;-54
2023/09/09 09:52:07;;;;;;;52.67;49.67;;;26.30;99.90;;;;;;5053021;28;20476;-54
2023/09/09 09:54:37;;;;;;;52.90;49.90;;;26.40;99.90;;;;;;5052906;28;20502;-53
2023/09/09 09:57:06;;;;;;;53.03;50.20;;;26.40;99.90;;;;;;5053222;28;20444;-57
2023/09/09 09:59:35;;;;;;;53.50;50.47;;;26.40;99.90;;;;;;5053005;28;20583;-59
2023/09/09 10:02:03;;;;;;;54.07;51.23;;;26.40;99.90;;;;;;5052697;28;20441;-60
2023/09/09 10:04:37;;;;;;;50.37;47.37;;;26.40;99.90;;;;;;5052674;28;20476;-58
2023/09/09 10:07:09;;;;;;;51.30;48.40;;;26.30;99.90;;;;;;5052556;28;20471;-58
2023/09/09 10:09:42;;;;;;;54.20;51.50;;;26.30;99.90;;;;;;5052805;28;20989;-58
2023/09/09 10:12:15;;;;;;;51.87;49.07;;;26.40;99.90;;;;;;5052874;28;20531;-61
2023/09/09 10:14:42;;;;;;;52.80;50.00;;;26.40;99.90;;;;;;5052889;28;20532;-59
2023/09/09 10:17:10;;;;;;;53.90;50.70;;;26.40;99.90;;;;;;5052238;28;20463;-61
2023/09/09 10:19:37;;;;;;;53.23;50.53;;;26.40;99.90;;;;;;5052516;28;20460;-60
2023/09/09 10:22:06;;;;;;;55.30;52.37;;;26.40;99.90;;;;;;5052308;28;20479;-59
2023/09/09 10:24:33;;;;;;;52.67;49.77;;;26.50;99.90;;;;;;5052783;28;20484;-60
2023/09/09 10:27:03;;;;;;;52.90;50.20;;;26.50;99.90;;;;;;5052743;28;20950;-60
2023/09/09 10:29:31;;;;;;;51.53;48.83;;;26.50;99.90;;;;;;5042940;28;20499;-59
2023/09/09 10:32:02;;;;;;;50.90;48.17;;;26.50;99.90;;;;;;5052117;28;20458;-58
2023/09/09 10:34:30;;;;;;;49.53;46.93;;;26.50;99.90;;;;;;5044942;28;20432;-58
2023/09/09 10:37:00;;;;;;;47.90;45.30;;;26.60;99.90;;;;;;5052401;28;20938;-58
2023/09/09 10:39:27;;;;;;;51.53;48.83;;;26.60;99.90;;;;;;5052116;28;20463;-59
2023/09/09 10:41:55;;;;;;;49.20;46.20;;;26.60;99.90;;;;;;5051809;28;20483;-57
2023/09/09 10:44:23;;;;;;;49.60;47.10;;;26.60;99.90;;;;;;5051911;28;20486;-58
2023/09/09 10:46:55;;;;;;;51.53;48.73;;;26.60;99.90;;;;;;5051802;28;20783;-58
2023/09/09 10:49:26;;;;;;;49.87;47.20;;;26.60;99.90;;;;;;5051993;28;20828;-57
2023/09/09 10:51:53;;;;;;;48.63;45.97;;;26.60;99.90;;;;;;5051801;28;20440;-57
2023/09/09 10:54:22;;;;;;;52.57;49.87;;;26.60;99.90;;;;;;5051933;28;20936;-58
2023/09/09 10:56:50;;;;;;;49.13;46.47;;;26.60;99.90;;;;;;5051872;28;20476;-58
2023/09/09 10:59:19;;;;;;;49.17;46.80;;;26.60;99.90;;;;;;5051727;28;20460;-58
2023/09/09 11:01:47;;;;;;;49.37;46.77;;;26.60;99.90;;;;;;5051585;28;20474;-58
2023/09/09 11:04:22;;;;;;;49.37;46.83;;;26.60;99.90;;;;;;5051628;28;20510;-57
2023/09/09 11:07:16;;;;;;;49.37;46.80;;;26.60;99.90;;;;;;5051813;28;20448;-59
2023/09/09 11:09:51;;;;;;;49.20;46.67;;;26.60;99.90;;;;;;5015968;28;20492;-59
2023/09/09 11:12:25;;;;;;;51.50;48.60;;;26.60;99.90;;;;;;5051526;28;20436;-57
2023/09/09 11:14:59;;;;;;;49.97;47.53;;;26.60;99.90;;;;;;5051760;28;20474;-58
2023/09/09 11:17:29;;;;;;;50.67;47.73;;;26.60;99.90;;;;;;5051436;28;20433;-57
2023/09/09 11:19:57;;;;;;;52.50;49.80;;;26.60;99.90;;;;;;5051292;28;20495;-55
2023/09/09 11:22:24;;;;;;;48.97;46.50;;;26.60;99.90;;;;;;5051241;28;20464;-59
2023/09/09 11:24:52;;;;;;;51.83;48.60;;;26.60;99.90;;;;;;5051664;28;20511;-57
2023/09/09 11:27:20;;;;;;;50.80;48.20;;;26.60;99.90;;;;;;5051405;28;20753;-56
2023/09/09 11:29:51;;;;;;;50.57;47.97;;;26.60;99.90;;;;;;5051225;28;20487;-59
2023/09/09 11:32:24;;;;;;;51.03;48.33;;;26.60;99.90;;;;;;5051158;28;20440;-54
2023/09/09 11:34:53;;;;;;;53.33;50.40;;;26.60;99.90;;;;;;5051362;28;20441;-58
2023/09/09 11:37:20;;;;;;;53.30;50.20;;;26.60;99.90;;;;;;5051405;28;20472;-57
2023/09/09 11:39:46;;;;;;;55.37;52.10;;;26.70;99.90;;;;;;5051209;28;20901;-59
2023/09/09 11:42:13;;;;;;;51.17;48.23;;;26.70;99.90;;;;;;5050954;28;20485;-55
2023/09/09 11:44:41;;;;;;;54.47;51.23;;;26.70;99.90;;;;;;5051225;28;20555;-57
2023/09/09 11:47:09;;;;;;;52.37;49.37;;;26.70;99.90;;;;;;5051093;28;20459;-57
2023/09/09 11:49:38;;;;;;;50.97;48.27;;;26.70;99.90;;;;;;5051248;28;20985;-54
2023/09/09 11:52:06;;;;;;;52.63;50.00;;;26.80;99.90;;;;;;5051201;28;20444;-58
2023/09/09 11:54:33;;;;;;;52.10;49.30;;;26.80;99.90;;;;;;5043472;28;20491;-55
2023/09/09 11:57:07;;;;;;;52.67;50.17;;;26.80;99.90;;;;;;5051131;28;20469;-57
2023/09/09 11:59:44;;;;;;;54.20;51.27;;;26.80;99.90;;;;;;5045164;28;20488;-57
2023/09/09 12:02:18;;;;;;;53.03;50.23;;;26.80;99.90;;;;;;5055087;28;20807;-57
2023/09/09 12:04:54;;;;;;;50.13;47.20;;;26.80;99.90;;;;;;5055217;28;20503;-56
2023/09/09 12:07:24;;;;;;;53.93;51.20;;;26.80;99.90;;;;;;5055205;28;20467;-57
2023/09/09 12:09:51;;;;;;;49.27;46.77;;;26.80;99.90;;;;;;5055335;28;20492;-55
2023/09/09 12:12:19;;;;;;;57.50;54.80;;;26.90;99.90;;;;;;5054785;28;20472;-53
2023/09/09 12:14:47;;;;;;;52.80;49.27;;;26.90;99.90;;;;;;5055069;28;20517;-55
2023/09/09 12:17:14;;;;;;;50.67;48.00;;;26.90;99.90;;;;;;5054865;28;20494;-58
2023/09/09 12:19:41;;;;;;;51.07;48.30;;;26.90;99.90;;;;;;5054818;28;20552;-56
2023/09/09 12:22:08;;;;;;;52.73;50.13;;;27.00;99.90;;;;;;5054510;28;20971;-56
2023/09/09 12:24:42;;;;;;;56.57;53.63;;;27.00;99.90;;;;;;5054776;28;20483;-53
2023/09/09 12:27:09;;;;;;;50.90;48.30;;;27.00;99.90;;;;;;5054609;28;20482;-58
2023/09/09 12:29:45;;;;;;;52.30;49.80;;;27.00;99.90;;;;;;5054589;28;20493;-54
2023/09/09 12:32:12;;;;;;;51.20;48.50;;;27.10;99.90;;;;;;5054461;28;20471;-56